Time;durP1;ratioP1;P1;durP2;ratioP2;P2;SDS_P1;SDS_P2;PMS_P1;PMS_P2;Temp;Humidity;BMP_temperature;BMP_pressure;BME280_temperature;BME280_humidity;BME280_pressure;Samples;Min_cycle;Max_cycle;Signal;HPM_P1;HPM_P2
2023/09/23 00:04:53;;;;;;;1.70;1.10;;;;;;;-145.68;89.72;73168.00;10453404;28;20717;-73
2023/09/23 00:09:54;;;;;;;2.97;0.95;;;;;;;-145.68;88.67;73166.00;10449790;28;20328;-73
2023/09/23 00:14:57;;;;;;;1.02;0.93;;;;;;;-145.68;88.10;73170.00;10450111;28;20723;-73
2023/09/23 00:19:58;;;;;;;1.85;1.08;;;;;;;-145.68;88.11;73168.00;10448757;28;20207;-73
2023/09/23 00:24:59;;;;;;;1.00;1.00;;;;;;;-145.68;88.88;73186.00;10434611;28;20698;-74
2023/09/23 00:29:59;;;;;;;1.73;1.10;;;;;;;-145.68;90.04;73207.97;10430522;28;20599;-73
2023/09/23 00:35:01;;;;;;;1.33;1.20;;;;;;;-145.68;90.35;73196.00;10432426;28;20192;-73
2023/09/23 00:40:03;;;;;;;1.20;1.10;;;;;;;-145.68;89.82;73207.97;10429706;28;20210;-73
2023/09/23 00:45:04;;;;;;;1.15;1.02;;;;;;;-145.68;89.69;73207.97;10451771;28;20605;-73
2023/09/23 00:50:05;;;;;;;1.00;1.00;;;;;;;-145.68;91.02;73245.97;10410372;28;20232;-73
2023/09/23 00:55:05;;;;;;;1.42;0.98;;;;;;;-145.68;91.67;73243.97;10408950;28;20196;-73
2023/09/23 01:00:11;;;;;;;1.80;1.30;;;;;;;-145.68;91.36;73239.97;10403605;28;20192;-73
2023/09/23 01:05:13;;;;;;;1.20;1.10;;;;;;;-145.68;90.50;73231.97;10408152;28;20209;-73
2023/09/23 01:10:17;;;;;;;2.08;1.10;;;;;;;-145.68;88.49;73231.97;10405154;28;20205;-74
2023/09/23 01:15:17;;;;;;;1.30;1.20;;;;;;;-145.68;87.99;73259.94;10407355;28;20559;-74
2023/09/23 01:20:18;;;;;;;1.42;1.00;;;;;;;-145.68;87.79;73259.94;10407323;28;20193;-74
2023/09/23 01:25:18;;;;;;;1.40;0.90;;;;;;;-145.68;88.12;73269.94;10405882;28;20213;-74
2023/09/23 01:30:24;;;;;;;1.38;1.00;;;;;;;-145.68;88.00;73263.94;10403248;28;20515;-74
2023/09/23 01:35:24;;;;;;;1.13;1.00;;;;;;;-145.68;87.17;73259.94;10406110;28;20697;-74
2023/09/23 01:40:25;;;;;;;1.23;1.10;;;;;;;-145.68;86.40;73261.94;10406879;28;20197;-73
2023/09/23 01:45:25;;;;;;;3.83;1.10;;;;;;;-145.68;85.98;73251.94;10405833;28;20208;-73
2023/09/23 01:50:27;;;;;;;1.35;1.23;;;;;;;-145.68;86.24;73255.94;10387458;28;20247;-74
2023/09/23 01:55:28;;;;;;;1.00;1.00;;;;;;;-145.68;86.53;73271.94;10388417;28;20224;-73
2023/09/23 02:00:29;;;;;;;2.95;1.30;;;;;;;-145.68;87.80;73277.94;10403327;28;20189;-73
2023/09/23 02:05:29;;;;;;;1.38;1.10;;;;;;;-145.68;88.79;73303.91;10406015;28;20192;-73
2023/09/23 02:10:30;;;;;;;1.48;0.90;;;;;;;-145.68;89.83;73323.91;10403794;28;20192;-73
2023/09/23 02:15:30;;;;;;;1.38;1.27;;;;;;;-145.68;90.68;73343.88;10404136;28;20637;-73
2023/09/23 02:20:31;;;;;;;1.20;1.10;;;;;;;-145.68;91.79;73363.88;10405437;28;20189;-73
2023/09/23 02:25:32;;;;;;;2.03;1.10;;;;;;;-145.68;92.24;73379.88;10403585;28;20196;-74
2023/09/23 02:30:33;;;;;;;1.10;1.00;;;;;;;-145.68;92.83;73395.84;10402148;28;20657;-73
2023/09/23 02:35:34;;;;;;;2.08;1.30;;;;;;;-145.68;93.64;73391.84;10406902;28;20222;-74
2023/09/23 02:40:35;;;;;;;1.73;1.02;;;;;;;-145.68;94.64;73405.84;10417246;28;20195;-73
2023/09/23 02:45:35;;;;;;;1.73;1.00;;;;;;;-145.68;95.67;73419.84;10411464;28;20188;-73
2023/09/23 02:50:37;;;;;;;1.52;1.00;;;;;;;-145.68;95.01;73419.84;10406751;28;20290;-73
2023/09/23 02:55:41;;;;;;;1.07;1.03;;;;;;;-145.68;94.26;73423.84;10412584;28;20213;-73
2023/09/23 03:00:56;;;;;;;0.90;0.90;;;;;;;-145.68;93.75;73417.84;10410869;28;20196;-73
2023/09/23 03:05:57;;;;;;;1.95;1.02;;;;;;;-145.68;93.15;73413.84;10412207;28;20875;-73
2023/09/23 03:11:02;;;;;;;1.23;1.13;;;;;;;-145.68;92.28;73413.84;10411947;28;20189;-74
2023/09/23 03:16:10;;;;;;;1.10;0.90;;;;;;;-145.68;91.50;73399.84;10413294;28;20579;-73
2023/09/23 03:21:11;;;;;;;2.50;1.00;;;;;;;-145.68;91.92;73403.84;10409989;28;20192;-73
2023/09/23 03:26:11;;;;;;;2.63;1.23;;;;;;;-145.68;91.46;73423.84;10410480;28;20224;-73
2023/09/23 03:31:14;;;;;;;1.20;1.10;;;;;;;-145.68;94.07;73457.81;10409447;28;20192;-73
2023/09/23 03:36:20;;;;;;;1.25;1.00;;;;;;;-145.68;95.71;73473.81;10411605;28;20248;-73
2023/09/23 03:41:21;;;;;;;1.45;1.15;;;;;;;-145.68;97.16;73481.81;10409425;28;20189;-73
2023/09/23 03:46:21;;;;;;;1.20;0.93;;;;;;;-145.68;96.11;73469.81;10407905;28;20736;-73
2023/09/23 03:51:22;;;;;;;1.67;1.00;;;;;;;-145.68;96.32;73495.78;10409685;28;20239;-73
2023/09/23 03:56:24;;;;;;;1.95;1.30;;;;;;;-145.68;94.89;73491.81;10407920;28;20228;-73
2023/09/23 04:01:25;;;;;;;1.52;1.15;;;;;;;-145.68;91.98;73477.81;10407850;28;20196;-73
2023/09/23 04:06:26;;;;;;;1.90;1.00;;;;;;;-145.68;92.01;73503.78;10406174;28;20695;-73
2023/09/23 04:11:27;;;;;;;4.07;1.08;;;;;;;-145.68;94.38;73535.78;10410785;28;20250;-73
2023/09/23 04:16:27;;;;;;;1.90;1.02;;;;;;;-145.68;94.76;73545.78;10406722;28;20223;-73
2023/09/23 04:21:31;;;;;;;0.97;0.97;;;;;;;-145.68;95.21;73565.75;10406684;28;20730;-73
2023/09/23 04:26:31;;;;;;;3.37;1.00;;;;;;;-145.68;97.36;73595.75;10407927;28;20208;-73
2023/09/23 04:31:32;;;;;;;1.10;1.00;;;;;;;-145.68;97.21;73597.75;10409358;28;20266;-73
2023/09/23 04:36:32;;;;;;;1.10;1.00;;;;;;;-145.68;98.44;73607.72;10408008;28;20223;-74
2023/09/23 04:41:33;;;;;;;1.00;1.00;;;;;;;-145.68;99.42;73621.72;10401805;28;20896;-73
2023/09/23 04:46:33;;;;;;;1.40;1.20;;;;;;;-145.68;99.57;73633.72;10408042;28;20223;-74
2023/09/23 04:51:34;;;;;;;2.15;1.00;;;;;;;-145.68;98.04;73617.72;10430783;28;20199;-73
2023/09/23 04:56:35;;;;;;;2.17;1.20;;;;;;;-145.68;97.21;73629.72;10448889;28;20597;-73
2023/09/23 05:01:35;;;;;;;3.37;1.20;;;;;;;-145.68;98.64;73655.69;10445284;28;20219;-73
2023/09/23 05:06:36;;;;;;;2.50;1.10;;;;;;;-145.68;98.17;73651.72;10448608;28;20192;-73
2023/09/23 05:11:36;;;;;;;1.27;0.90;;;;;;;-145.68;97.14;73631.72;10449093;28;20235;-73
2023/09/23 05:16:36;;;;;;;1.30;1.20;;;;;;;-145.68;95.61;73635.72;10447929;28;20243;-73
2023/09/23 05:21:37;;;;;;;2.90;1.10;;;;;;;-145.68;93.69;73615.72;10446277;28;20195;-73
2023/09/23 05:26:40;;;;;;;3.07;1.10;;;;;;;-145.68;92.04;73627.72;10448926;28;20179;-73
2023/09/23 05:31:41;;;;;;;1.00;0.90;;;;;;;-145.68;91.83;73615.72;10444533;28;20241;-73
2023/09/23 05:36:42;;;;;;;3.70;1.05;;;;;;;-145.68;90.42;73627.72;10447051;28;20219;-74
2023/09/23 05:41:42;;;;;;;0.85;0.85;;;;;;;-145.68;88.83;73617.72;10428380;28;20213;-73
2023/09/23 05:46:43;;;;;;;1.40;1.10;;;;;;;-145.68;87.26;73615.72;10447184;28;20199;-73
2023/09/23 05:51:45;;;;;;;1.80;1.00;;;;;;;-145.68;86.98;73609.72;10449688;28;20199;-73
2023/09/23 05:56:46;;;;;;;1.25;1.00;;;;;;;-145.68;86.11;73593.75;10412533;28;20238;-73
2023/09/23 06:01:46;;;;;;;1.00;0.95;;;;;;;-145.68;84.33;73559.75;10444551;28;20472;-74
2023/09/23 06:06:47;;;;;;;1.65;0.95;;;;;;;-145.68;81.24;73533.78;10451963;28;20256;-73
2023/09/23 06:11:48;;;;;;;1.10;0.90;;;;;;;-145.68;76.88;73479.81;10445923;28;20191;-73
2023/09/23 06:16:49;;;;;;;1.27;0.95;;;;;;;-145.68;73.12;73471.81;10427192;28;20765;-72
2023/09/23 06:21:51;;;;;;;1.80;0.90;;;;;;;-145.68;71.03;73425.84;10424992;28;20188;-73
2023/09/23 06:26:51;;;;;;;3.95;0.95;;;;;;;-145.68;70.45;73467.81;10447403;28;20282;-73
2023/09/23 06:31:52;;;;;;;0.90;0.90;;;;;;;-145.68;70.90;73487.81;10444007;28;20198;-72
2023/09/23 06:36:52;;;;;;;0.80;0.80;;;;;;;-145.68;70.57;73499.78;10446131;28;20241;-73
2023/09/23 06:41:52;;;;;;;0.63;0.63;;;;;;;-145.68;69.43;73447.81;10443998;28;20251;-73
2023/09/23 06:46:53;;;;;;;3.65;1.02;;;;;;;-145.68;69.58;73535.78;10444492;28;20322;-73
2023/09/23 06:51:53;;;;;;;1.20;0.80;;;;;;;-145.68;70.39;73521.78;10449715;28;20684;-73
2023/09/23 06:56:57;;;;;;;0.77;0.63;;;;;;;-145.68;69.60;73527.78;10444862;28;20223;-73
2023/09/23 07:01:57;;;;;;;0.68;0.68;;;;;;;-145.68;69.64;73569.75;10444904;28;20191;-73
2023/09/23 07:06:57;;;;;;;0.60;0.60;;;;;;;-145.68;69.05;73545.78;10411126;28;20560;-73
2023/09/23 07:11:58;;;;;;;0.50;0.50;;;;;;;-145.68;69.27;73557.75;10424458;28;20199;-73
2023/09/23 07:16:59;;;;;;;1.10;0.60;;;;;;;-145.68;67.80;73555.75;10427285;28;20235;-73
2023/09/23 07:22:00;;;;;;;1.02;0.75;;;;;;;-145.68;67.41;73525.78;10444500;28;20192;-74
2023/09/23 07:27:01;;;;;;;0.60;0.60;;;;;;;-145.68;65.55;73515.78;10450152;28;20187;-73
2023/09/23 07:32:01;;;;;;;1.40;0.60;;;;;;;-145.68;65.00;73513.78;10450950;28;20196;-72
2023/09/23 07:37:02;;;;;;;0.70;0.70;;;;;;;-145.68;64.77;73499.78;10451943;28;20687;-73
2023/09/23 07:42:03;;;;;;;0.60;0.60;;;;;;;-145.68;63.17;73487.81;10450114;28;20200;-73
2023/09/23 07:47:03;;;;;;;2.03;0.77;;;;;;;-145.68;63.36;73507.78;10451169;28;20227;-72
2023/09/23 07:52:04;;;;;;;0.70;0.65;;;;;;;-145.68;62.42;73483.81;10449951;28;20202;-73
2023/09/23 07:57:05;;;;;;;0.50;0.50;;;;;;;-145.68;60.45;73451.81;10451406;28;20242;-73
2023/09/23 08:02:05;;;;;;;0.47;0.40;;;;;;;-145.68;59.76;73433.84;10448716;28;20674;-74
2023/09/23 08:07:06;;;;;;;0.75;0.55;;;;;;;-145.68;60.08;73439.84;10450233;28;20198;-73
2023/09/23 08:12:07;;;;;;;0.73;0.60;;;;;;;-145.68;61.65;73511.78;10442317;28;20196;-73
2023/09/23 08:17:07;;;;;;;0.50;0.50;;;;;;;-145.68;61.64;73523.78;10445183;28;20620;-73
2023/09/23 08:22:07;;;;;;;0.50;0.50;;;;;;;-145.68;62.32;73487.81;10431168;28;20187;-73
2023/09/23 08:27:08;;;;;;;1.02;0.52;;;;;;;-145.68;61.88;73485.81;10449797;28;20190;-73
2023/09/23 08:32:08;;;;;;;1.30;0.55;;;;;;;-145.68;60.53;73425.84;10449602;28;20718;-73
2023/09/23 08:37:08;;;;;;;0.40;0.40;;;;;;;-145.68;58.08;73275.94;10435772;28;20243;-73
2023/09/23 08:42:09;;;;;;;1.88;0.40;;;;;;;-145.68;57.75;73345.88;10448411;28;20199;-73
2023/09/23 08:47:10;;;;;;;0.50;0.50;;;;;;;-145.68;57.28;73347.88;10431413;28;20594;-73
2023/09/23 08:52:12;;;;;;;0.43;0.43;;;;;;;-145.68;56.31;73251.94;10434387;28;20191;-74
2023/09/23 08:57:12;;;;;;;0.55;0.55;;;;;;;-145.68;55.76;73295.94;10431967;28;20196;-73
2023/09/23 09:02:21;;;;;;;0.63;0.50;;;;;;;-145.68;55.72;73383.88;10474174;28;20187;-72
2023/09/23 09:07:31;;;;;;;1.67;0.60;;;;;;;-145.68;56.13;73253.94;10465461;28;20195;-70
2023/09/23 09:12:32;;;;;;;0.45;0.45;;;;;;;-145.68;53.27;73184.00;10466328;28;20215;-73
2023/09/23 09:17:35;;;;;;;0.50;0.50;;;;;;;-145.68;54.01;73287.94;10451258;28;20192;-73
2023/09/23 09:22:36;;;;;;;1.35;0.93;;;;;;;-145.68;54.24;73146.03;10447175;28;20224;-74
2023/09/23 09:27:37;;;;;;;1.10;0.68;;;;;;;-145.68;52.31;73219.97;10429738;28;20195;-74
2023/09/23 09:32:41;;;;;;;2.20;0.60;;;;;;;-145.68;52.99;73281.94;10451966;28;20208;-74
2023/09/23 09:37:46;;;;;;;4.57;0.90;;;;;;;-145.68;51.69;73166.00;10446727;28;20663;-74
2023/09/23 09:42:54;;;;;;;0.88;0.60;;;;;;;-145.68;53.03;73275.94;10429497;28;20188;-74
2023/09/23 09:47:55;;;;;;;0.68;0.68;;;;;;;-145.68;53.59;73309.91;10446589;28;20236;-73
2023/09/23 09:52:56;;;;;;;1.15;0.90;;;;;;;-145.68;55.60;73451.81;10451129;28;20588;-73
2023/09/23 09:57:56;;;;;;;1.38;0.60;;;;;;;-145.68;56.44;73341.91;10428928;28;20210;-74
2023/09/23 10:03:00;;;;;;;1.17;0.60;;;;;;;-145.68;54.17;73279.94;10428547;28;20200;-74
2023/09/23 10:08:12;;;;;;;3.40;0.73;;;;;;;-145.68;55.29;73249.94;10448017;28;20192;-74
2023/09/23 10:13:18;;;;;;;0.85;0.73;;;;;;;-145.68;52.12;73058.09;10446966;28;20703;-74
2023/09/23 10:18:19;;;;;;;1.02;0.70;;;;;;;-145.68;49.07;72880.22;10446797;28;20192;-74
2023/09/23 10:23:20;;;;;;;15.48;1.10;;;;;;;-145.68;48.42;72996.13;10445493;28;20188;-74
2023/09/23 10:28:30;;;;;;;1.20;0.73;;;;;;;-145.68;51.28;73110.06;10450790;28;20610;-73
2023/09/23 10:33:35;;;;;;;0.98;0.70;;;;;;;-145.68;50.34;73052.09;10444312;28;20218;-73
2023/09/23 10:38:37;;;;;;;3.05;0.65;;;;;;;-145.68;49.98;73026.09;10445402;28;20722;-73
2023/09/23 10:43:38;;;;;;;0.63;0.60;;;;;;;-145.68;48.13;73064.09;10445596;28;20520;-73
2023/09/23 10:48:40;;;;;;;2.38;0.90;;;;;;;-145.68;48.54;73120.03;10449804;28;20235;-74
2023/09/23 10:53:42;;;;;;;0.90;0.73;;;;;;;-145.68;49.32;73168.00;10445077;28;20757;-73
2023/09/23 10:58:42;;;;;;;0.75;0.70;;;;;;;-145.68;49.39;73100.06;10447385;28;20193;-73
2023/09/23 11:03:43;;;;;;;0.73;0.65;;;;;;;-145.68;46.90;72934.19;10435344;28;20550;-73
2023/09/23 11:08:43;;;;;;;2.47;0.70;;;;;;;-145.68;46.35;72994.13;10439998;28;20294;-74
2023/09/23 11:13:44;;;;;;;2.30;0.60;;;;;;;-145.68;47.62;73076.06;10452421;28;20250;-74
2023/09/23 11:18:45;;;;;;;0.90;0.80;;;;;;;-145.68;49.24;73223.97;10452550;28;20554;-73
2023/09/23 11:23:55;;;;;;;1.25;1.02;;;;;;;-145.68;50.03;73203.97;10448219;28;20675;-73
2023/09/23 11:28:55;;;;;;;1.02;0.90;;;;;;;-145.68;48.40;73148.03;10455984;28;20662;-73
2023/09/23 11:33:56;;;;;;;1.83;0.90;;;;;;;-145.68;48.56;73052.09;10451544;28;20211;-74
2023/09/23 11:38:56;;;;;;;1.30;0.90;;;;;;;-145.68;47.20;73000.13;10452441;28;20204;-75
2023/09/23 11:43:57;;;;;;;1.58;0.77;;;;;;;-145.68;47.99;73106.06;10456249;28;20648;-75
2023/09/23 11:48:59;;;;;;;0.63;0.63;;;;;;;-145.68;49.82;73196.00;10451643;28;20236;-74
2023/09/23 11:53:59;;;;;;;0.82;0.80;;;;;;;-145.68;47.54;72962.16;10450894;28;20232;-74
2023/09/23 11:59:00;;;;;;;5.90;0.80;;;;;;;-145.68;46.95;72948.16;10451461;28;20254;-74
2023/09/23 12:04:00;;;;;;;2.42;1.10;;;;;;;-145.68;43.49;72752.31;10455374;28;20713;-74
2023/09/23 12:09:02;;;;;;;1.42;0.95;;;;;;;-145.68;44.37;72928.19;10450714;28;20207;-74
2023/09/23 12:14:03;;;;;;;1.00;0.80;;;;;;;-145.68;42.83;72786.28;10449916;28;20735;-74
2023/09/23 12:19:03;;;;;;;0.70;0.70;;;;;;;-145.68;45.70;73022.13;10450070;28;20287;-74
2023/09/23 12:24:04;;;;;;;1.67;0.95;;;;;;;-145.68;44.51;72832.25;10454926;28;21034;-73
2023/09/23 12:29:04;;;;;;;1.90;0.70;;;;;;;-145.68;43.38;72830.25;10450124;28;20205;-74
2023/09/23 12:34:05;;;;;;;0.75;0.60;;;;;;;-145.68;42.73;72884.22;10449463;28;20285;-74
2023/09/23 12:39:06;;;;;;;0.68;0.68;;;;;;;-145.68;41.96;72858.22;10449769;28;20257;-74
2023/09/23 12:44:07;;;;;;;1.77;0.73;;;;;;;-145.68;40.80;72744.31;10453873;28;20196;-75
2023/09/23 12:49:09;;;;;;;0.90;0.90;;;;;;;-145.68;40.55;72732.34;10448963;28;20239;-74
2023/09/23 12:54:11;;;;;;;2.08;1.10;;;;;;;-145.68;40.40;72700.34;10431227;28;20220;-75
2023/09/23 12:59:11;;;;;;;1.35;0.80;;;;;;;-145.68;40.04;72616.44;10452183;28;20285;-74
2023/09/23 13:04:11;;;;;;;2.45;0.90;;;;;;;-145.68;40.09;72642.41;10449903;28;20198;-74
2023/09/23 13:09:12;;;;;;;1.38;0.60;;;;;;;-145.68;41.17;72760.31;10448812;28;20674;-74
2023/09/23 13:14:12;;;;;;;3.38;0.77;;;;;;;-145.68;40.63;72732.34;10447504;28;20277;-75
2023/09/23 13:19:13;;;;;;;1.33;0.90;;;;;;;-145.68;39.40;72574.47;10452945;28;20223;-74
2023/09/23 13:24:14;;;;;;;2.33;0.70;;;;;;;-145.68;37.75;72436.56;10446980;28;20628;-74
2023/09/23 13:29:14;;;;;;;1.15;0.80;;;;;;;-145.68;38.24;72538.50;10447881;28;20192;-74
2023/09/23 13:34:15;;;;;;;12.18;1.20;;;;;;;-145.68;40.22;72662.38;10448302;28;20227;-74
2023/09/23 13:39:15;;;;;;;5.32;0.80;;;;;;;-145.68;40.49;72706.34;10452160;28;20188;-74
2023/09/23 13:44:15;;;;;;;4.85;0.80;;;;;;;-145.68;39.44;72764.31;10446695;28;20194;-74
2023/09/23 13:49:16;;;;;;;1.17;0.75;;;;;;;-145.68;39.89;72808.28;10446890;28;20700;-74
2023/09/23 13:54:16;;;;;;;1.95;0.80;;;;;;;-145.68;40.42;72830.25;10428932;28;20473;-74
2023/09/23 13:59:17;;;;;;;1.60;0.90;;;;;;;-145.68;38.29;72740.31;10451283;28;20196;-74
2023/09/23 14:04:18;;;;;;;2.72;1.00;;;;;;;-145.68;40.10;72928.19;10446180;28;20217;-74
2023/09/23 14:09:18;;;;;;;0.70;0.70;;;;;;;-145.68;40.90;72948.16;10428740;28;20192;-74
2023/09/23 14:14:19;;;;;;;0.85;0.82;;;;;;;-145.68;41.51;73000.13;10444143;28;20220;-74
2023/09/23 14:19:20;;;;;;;0.60;0.60;;;;;;;-145.68;42.26;72994.13;10444965;28;20207;-74
2023/09/23 14:24:20;;;;;;;1.00;0.70;;;;;;;-145.68;42.65;73024.13;10428412;28;20539;-74
2023/09/23 14:29:20;;;;;;;2.10;0.82;;;;;;;-145.68;44.93;73217.97;10444779;28;20454;-74
2023/09/23 14:34:22;;;;;;;1.60;0.90;;;;;;;-145.68;44.55;73134.03;10415677;28;20220;-74
2023/09/23 14:39:22;;;;;;;1.60;0.95;;;;;;;-145.68;43.94;73082.06;10453508;28;20493;-74
2023/09/23 14:44:23;;;;;;;1.73;1.30;;;;;;;-145.68;40.98;72758.31;10453857;28;20194;-74
2023/09/23 14:49:23;;;;;;;3.13;0.98;;;;;;;-145.68;39.33;72772.31;10453225;28;20245;-74
2023/09/23 14:54:23;;;;;;;1.85;0.80;;;;;;;-145.68;41.74;72988.13;10453857;28;20219;-74
2023/09/23 14:59:25;;;;;;;2.25;1.00;;;;;;;-145.68;44.47;73130.03;10452666;28;20203;-74
2023/09/23 15:04:25;;;;;;;1.02;0.75;;;;;;;-145.68;44.19;73168.00;10453347;28;20271;-74
2023/09/23 15:09:26;;;;;;;2.15;1.00;;;;;;;-145.68;43.66;73048.09;10452693;28;20192;-75
2023/09/23 15:14:27;;;;;;;1.38;0.80;;;;;;;-145.68;43.05;73032.09;10453467;28;20235;-75
2023/09/23 15:19:27;;;;;;;1.63;0.90;;;;;;;-145.68;45.98;73313.91;10452138;28;20246;-75
2023/09/23 15:24:27;;;;;;;1.25;1.00;;;;;;;-145.68;45.56;73285.94;10451937;28;20647;-74
2023/09/23 15:29:28;;;;;;;4.38;1.05;;;;;;;-145.68;44.85;73225.97;10451602;28;20195;-74
2023/09/23 15:34:28;;;;;;;2.55;1.00;;;;;;;-145.68;45.20;73281.94;10453150;28;20219;-74
2023/09/23 15:39:29;;;;;;;1.08;0.95;;;;;;;-145.68;45.23;73257.94;10451804;28;20587;-74
2023/09/23 15:44:29;;;;;;;2.15;0.90;;;;;;;-145.68;45.80;73203.97;10450508;28;20656;-74
2023/09/23 15:49:30;;;;;;;1.65;0.80;;;;;;;-145.68;44.95;73211.97;10451778;28;20228;-74
2023/09/23 15:54:30;;;;;;;2.63;1.13;;;;;;;-145.68;45.89;73255.94;10450968;28;20231;-75
2023/09/23 15:59:31;;;;;;;1.77;1.17;;;;;;;-145.68;46.39;73323.91;10450376;28;20196;-74
2023/09/23 16:04:31;;;;;;;1.50;0.82;;;;;;;-145.68;47.20;73345.88;10451033;28;20253;-74
2023/09/23 16:09:32;;;;;;;1.90;1.00;;;;;;;-145.68;48.02;73413.84;10450676;28;20204;-75
2023/09/23 16:14:32;;;;;;;2.17;0.82;;;;;;;-145.68;47.75;73405.84;10450259;28;20216;-74
2023/09/23 16:19:33;;;;;;;2.25;0.90;;;;;;;-145.68;47.79;73395.84;10450207;28;20192;-74
2023/09/23 16:24:33;;;;;;;1.13;1.02;;;;;;;-145.68;48.47;73395.84;10449396;28;20198;-75
2023/09/23 16:29:34;;;;;;;3.42;1.13;;;;;;;-145.68;48.25;73479.81;10450798;28;20596;-74
2023/09/23 16:34:34;;;;;;;4.57;1.05;;;;;;;-145.68;50.11;73497.78;10449210;28;20219;-74
2023/09/23 16:39:35;;;;;;;1.65;1.20;;;;;;;-145.68;49.66;73497.78;10449068;28;20192;-74
2023/09/23 16:44:35;;;;;;;2.78;1.17;;;;;;;-145.68;50.29;73547.75;10449506;28;20206;-74
2023/09/23 16:49:36;;;;;;;3.05;1.20;;;;;;;-145.68;49.98;73539.78;10449537;28;20618;-74
2023/09/23 16:54:38;;;;;;;1.00;0.90;;;;;;;-145.68;50.48;73525.78;10437976;28;20227;-74
2023/09/23 16:59:39;;;;;;;1.15;0.98;;;;;;;-145.68;50.45;73555.75;10447714;28;20191;-74
2023/09/23 17:04:45;;;;;;;1.35;1.13;;;;;;;-145.68;50.66;73555.75;10448777;28;20191;-75
2023/09/23 17:09:46;;;;;;;1.30;0.90;;;;;;;-145.68;51.14;73553.75;10444271;28;20773;-74
2023/09/23 17:14:46;;;;;;;1.58;1.05;;;;;;;-145.68;53.24;73601.72;10447972;28;20269;-74
2023/09/23 17:19:47;;;;;;;2.45;1.00;;;;;;;-145.68;53.77;73683.69;10447094;28;20604;-75
2023/09/23 17:24:47;;;;;;;5.00;1.30;;;;;;;-145.68;56.08;73731.66;10448605;28;20610;-74
2023/09/23 17:29:47;;;;;;;4.38;1.35;;;;;;;-145.68;57.30;73811.63;10447424;28;20691;-74
2023/09/23 17:34:48;;;;;;;1.20;1.10;;;;;;;-145.68;59.51;73885.56;10446614;28;20220;-74
2023/09/23 17:39:48;;;;;;;2.22;1.23;;;;;;;-145.68;61.63;73927.56;10446778;28;20580;-74
2023/09/23 17:44:50;;;;;;;3.00;1.20;;;;;;;-145.68;63.85;73973.53;10448129;28;20261;-74
2023/09/23 17:49:50;;;;;;;1.30;1.20;;;;;;;-145.68;63.91;73995.53;10445882;28;20243;-75
2023/09/23 17:54:51;;;;;;;4.28;1.23;;;;;;;-145.68;65.21;74019.50;10446698;28;20226;-75
2023/09/23 17:59:51;;;;;;;3.28;1.30;;;;;;;-145.68;67.78;74083.47;10446000;28;20275;-75
2023/09/23 18:04:52;;;;;;;2.38;1.20;;;;;;;-145.68;69.80;74115.47;10447033;28;20662;-74
2023/09/23 18:09:52;;;;;;;2.75;1.30;;;;;;;-145.68;71.52;74139.47;10445259;28;20946;-74
2023/09/23 18:14:53;;;;;;;6.22;1.60;;;;;;;-145.68;74.33;74195.44;10445973;28;20676;-75
2023/09/23 18:19:53;;;;;;;4.13;1.60;;;;;;;-145.68;75.45;74183.44;10445679;28;20245;-75
2023/09/23 18:24:55;;;;;;;4.82;1.52;;;;;;;-145.68;76.79;74221.44;10446803;28;20196;-74
2023/09/23 18:29:56;;;;;;;2.63;1.50;;;;;;;-145.68;79.01;74227.41;10445588;28;20199;-74
2023/09/23 18:34:56;;;;;;;5.47;2.70;;;;;;;-145.68;79.71;74219.44;10445216;28;20223;-75
2023/09/23 18:39:57;;;;;;;2.20;1.80;;;;;;;-145.68;81.63;74219.44;10445539;28;20249;-74
2023/09/23 18:44:58;;;;;;;2.27;1.70;;;;;;;-145.68;82.61;74237.41;10446738;28;20203;-74
2023/09/23 18:49:58;;;;;;;6.07;2.33;;;;;;;-145.68;84.34;74243.41;10444314;28;20248;-74
2023/09/23 18:54:58;;;;;;;1.77;1.60;;;;;;;-145.68;85.41;74251.41;10445592;28;20273;-75
2023/09/23 18:59:59;;;;;;;2.45;1.40;;;;;;;-145.68;86.40;74247.41;10445954;28;20192;-74
2023/09/23 19:04:59;;;;;;;8.18;2.00;;;;;;;-145.68;87.37;74275.41;10445474;28;20706;-74
2023/09/23 19:09:59;;;;;;;6.20;2.10;;;;;;;-145.68;88.44;74295.41;10426924;28;20188;-74
2023/09/23 19:15:01;;;;;;;4.07;2.20;;;;;;;-145.68;88.71;74301.38;10445035;28;20267;-74
2023/09/23 19:20:05;;;;;;;2.90;1.80;;;;;;;-145.68;90.01;74333.38;10445825;28;20246;-74
2023/09/23 19:25:07;;;;;;;3.30;1.80;;;;;;;-145.68;91.34;74353.38;10452316;28;20690;-74
2023/09/23 19:30:10;;;;;;;5.43;1.97;;;;;;;-145.68;92.31;74375.38;10452236;28;20192;-74
2023/09/23 19:35:11;;;;;;;1.60;1.50;;;;;;;-145.68;93.62;74383.34;10451543;28;20303;-73
2023/09/23 19:40:12;;;;;;;2.77;1.87;;;;;;;-145.68;93.62;74375.38;10434804;28;20192;-74
2023/09/23 19:45:12;;;;;;;2.53;1.80;;;;;;;-145.68;94.27;74391.34;10451021;28;20257;-74
2023/09/23 19:50:13;;;;;;;2.43;2.00;;;;;;;-145.68;94.89;74415.34;10450662;28;20277;-74
2023/09/23 19:55:13;;;;;;;4.83;1.70;;;;;;;-145.68;95.42;74415.34;10433651;28;20223;-74
2023/09/23 20:00:14;;;;;;;3.47;1.80;;;;;;;-145.68;96.40;74429.34;10452444;28;20564;-74
2023/09/23 20:05:15;;;;;;;2.50;1.87;;;;;;;-145.68;98.19;74455.34;10452026;28;20187;-74
2023/09/23 20:10:15;;;;;;;5.03;1.67;;;;;;;-145.68;99.55;74467.31;10448999;28;20199;-74
2023/09/23 20:15:17;;;;;;;3.07;1.70;;;;;;;-145.68;100.00;74479.31;10443699;28;20226;-74
2023/09/23 20:20:18;;;;;;;5.97;1.80;;;;;;;-145.68;100.00;74487.31;10450141;28;20200;-74
2023/09/23 20:25:19;;;;;;;2.70;1.70;;;;;;;-145.68;100.00;74519.31;10450462;28;20188;-74
2023/09/23 20:30:20;;;;;;;4.30;1.70;;;;;;;-145.68;100.00;74527.31;10431200;28;20434;-73
2023/09/23 20:35:22;;;;;;;4.47;2.07;;;;;;;-145.68;100.00;74539.31;10450858;28;20224;-73
2023/09/23 20:40:22;;;;;;;4.57;2.00;;;;;;;-145.68;100.00;74561.28;10431378;28;20208;-74
2023/09/23 20:45:23;;;;;;;2.93;1.87;;;;;;;-145.68;100.00;74571.28;10449237;28;20283;-74
2023/09/23 20:50:27;;;;;;;2.60;1.90;;;;;;;-145.68;100.00;74595.28;10430861;28;20262;-74
2023/09/23 20:55:28;;;;;;;5.43;2.20;;;;;;;-145.68;100.00;74603.28;10432641;28;20215;-74
2023/09/23 21:00:29;;;;;;;2.37;1.87;;;;;;;-145.68;100.00;74619.28;10448277;28;20192;-74
2023/09/23 21:05:31;;;;;;;7.50;2.03;;;;;;;-145.68;100.00;74627.28;10448477;28;20696;-74
2023/09/23 21:10:32;;;;;;;4.37;1.90;;;;;;;-145.68;100.00;74629.28;10448512;28;20196;-74
2023/09/23 21:15:32;;;;;;;3.50;2.03;;;;;;;-145.68;100.00;74639.28;10449096;28;20766;-74
2023/09/23 21:20:33;;;;;;;2.07;1.87;;;;;;;-145.68;100.00;74651.25;10448120;28;20245;-74
2023/09/23 21:25:33;;;;;;;5.73;2.30;;;;;;;-145.68;100.00;74659.25;10447825;28;20187;-74
2023/09/23 21:30:36;;;;;;;5.30;2.20;;;;;;;-145.68;100.00;74663.25;10429476;28;20667;-74
2023/09/23 21:35:39;;;;;;;3.43;1.83;;;;;;;-145.68;100.00;74679.25;10448712;28;20215;-74
2023/09/23 21:40:40;;;;;;;4.77;2.30;;;;;;;-145.68;100.00;74699.25;10430839;28;20207;-74
2023/09/23 21:45:40;;;;;;;3.93;2.30;;;;;;;-145.68;100.00;74707.25;10427075;28;20199;-74
2023/09/23 21:50:41;;;;;;;4.50;2.20;;;;;;;-145.68;100.00;74725.25;10447650;28;20694;-73
2023/09/23 21:55:41;;;;;;;5.27;2.00;;;;;;;-145.68;100.00;74747.25;10446944;28;20219;-74
2023/09/23 22:00:42;;;;;;;3.50;2.20;;;;;;;-145.68;100.00;74753.22;10446442;28;20195;-74
2023/09/23 22:05:42;;;;;;;4.47;2.10;;;;;;;-145.68;100.00;74763.22;10429326;28;20558;-74
2023/09/23 22:10:44;;;;;;;3.23;2.13;;;;;;;-145.68;100.00;74763.22;10446938;28;20560;-74
2023/09/23 22:15:45;;;;;;;2.43;2.10;;;;;;;-145.68;100.00;74775.22;10446571;28;20255;-74
2023/09/23 22:20:46;;;;;;;2.30;2.03;;;;;;;-145.68;100.00;74803.22;10442402;28;20624;-74
2023/09/23 22:25:46;;;;;;;4.00;1.80;;;;;;;-145.68;100.00;74793.22;10446186;28;20265;-74
2023/09/23 22:30:50;;;;;;;4.97;1.87;;;;;;;-145.68;100.00;74783.22;10446941;28;20680;-73
2023/09/23 22:35:50;;;;;;;3.23;1.67;;;;;;;-145.68;100.00;74779.22;10446391;28;20236;-74
2023/09/23 22:40:51;;;;;;;3.00;2.10;;;;;;;-145.68;100.00;74815.22;10445177;28;20586;-74
2023/09/23 22:45:51;;;;;;;4.37;2.10;;;;;;;-145.68;100.00;74827.22;10445993;28;20187;-74
2023/09/23 22:50:53;;;;;;;3.33;2.27;;;;;;;-145.68;100.00;74833.22;10446503;28;20312;-74